sensor_id;sensor_type;location;lat;lon;timestamp;P1;durP1;ratioP1;P2;durP2;ratioP2
55290;SDS011;41155;39.768;2.712;2023-02-12T00:00:36;52.55;;;39.28;;
55290;SDS011;41155;39.768;2.712;2023-02-12T00:03:03;74.22;;;50.63;;
55290;SDS011;41155;39.768;2.712;2023-02-12T00:05:29;51.53;;;37.53;;
55290;SDS011;41155;39.768;2.712;2023-02-12T00:07:55;52.63;;;39.60;;
55290;SDS011;41155;39.768;2.712;2023-02-12T00:10:21;41.90;;;31.98;;
55290;SDS011;41155;39.768;2.712;2023-02-12T00:12:46;43.22;;;33.13;;
55290;SDS011;41155;39.768;2.712;2023-02-12T00:15:12;36.92;;;28.85;;
55290;SDS011;41155;39.768;2.712;2023-02-12T00:17:37;88.55;;;68.25;;
55290;SDS011;41155;39.768;2.712;2023-02-12T00:20:03;56.88;;;41.90;;
55290;SDS011;41155;39.768;2.712;2023-02-12T00:22:28;69.20;;;45.38;;
55290;SDS011;41155;39.768;2.712;2023-02-12T00:24:54;33.47;;;28.67;;
55290;SDS011;41155;39.768;2.712;2023-02-12T00:27:20;39.17;;;33.63;;
55290;SDS011;41155;39.768;2.712;2023-02-12T00:29:46;71.05;;;51.45;;
55290;SDS011;41155;39.768;2.712;2023-02-12T00:32:12;60.05;;;49.47;;
55290;SDS011;41155;39.768;2.712;2023-02-12T00:34:38;49.90;;;36.90;;
55290;SDS011;41155;39.768;2.712;2023-02-12T00:37:04;52.40;;;41.53;;
55290;SDS011;41155;39.768;2.712;2023-02-12T00:39:30;52.90;;;40.10;;
55290;SDS011;41155;39.768;2.712;2023-02-12T00:41:55;50.00;;;34.13;;
55290;SDS011;41155;39.768;2.712;2023-02-12T00:44:21;51.78;;;38.85;;
55290;SDS011;41155;39.768;2.712;2023-02-12T00:46:46;82.68;;;58.38;;
55290;SDS011;41155;39.768;2.712;2023-02-12T00:49:12;58.83;;;42.22;;
55290;SDS011;41155;39.768;2.712;2023-02-12T00:51:38;50.40;;;40.67;;
55290;SDS011;41155;39.768;2.712;2023-02-12T00:54:03;52.97;;;40.40;;
55290;SDS011;41155;39.768;2.712;2023-02-12T00:56:29;47.15;;;35.83;;
55290;SDS011;41155;39.768;2.712;2023-02-12T00:58:54;52.72;;;37.60;;
55290;SDS011;41155;39.768;2.712;2023-02-12T01:01:20;46.17;;;37.75;;
55290;SDS011;41155;39.768;2.712;2023-02-12T01:03:45;37.35;;;31.08;;
55290;SDS011;41155;39.768;2.712;2023-02-12T01:06:11;51.50;;;37.20;;
55290;SDS011;41155;39.768;2.712;2023-02-12T01:08:36;19.65;;;17.08;;
55290;SDS011;41155;39.768;2.712;2023-02-12T01:11:02;16.50;;;14.48;;
55290;SDS011;41155;39.768;2.712;2023-02-12T01:13:30;35.95;;;27.52;;
55290;SDS011;41155;39.768;2.712;2023-02-12T01:16:04;21.58;;;18.50;;
55290;SDS011;41155;39.768;2.712;2023-02-12T01:18:37;15.73;;;12.30;;
55290;SDS011;41155;39.768;2.712;2023-02-12T01:21:10;24.20;;;14.57;;
55290;SDS011;41155;39.768;2.712;2023-02-12T01:23:37;15.32;;;13.27;;
55290;SDS011;41155;39.768;2.712;2023-02-12T01:26:03;15.68;;;14.05;;
55290;SDS011;41155;39.768;2.712;2023-02-12T01:28:29;15.25;;;12.40;;
55290;SDS011;41155;39.768;2.712;2023-02-12T01:30:54;34.78;;;28.55;;
55290;SDS011;41155;39.768;2.712;2023-02-12T01:33:20;31.08;;;27.40;;
55290;SDS011;41155;39.768;2.712;2023-02-12T01:35:45;31.70;;;28.02;;
55290;SDS011;41155;39.768;2.712;2023-02-12T01:38:11;35.15;;;28.63;;
55290;SDS011;41155;39.768;2.712;2023-02-12T01:40:36;33.25;;;27.85;;
55290;SDS011;41155;39.768;2.712;2023-02-12T01:43:02;37.63;;;29.80;;
55290;SDS011;41155;39.768;2.712;2023-02-12T01:47:53;34.03;;;28.08;;
55290;SDS011;41155;39.768;2.712;2023-02-12T01:50:19;30.25;;;26.35;;
55290;SDS011;41155;39.768;2.712;2023-02-12T01:52:50;27.23;;;24.25;;
55290;SDS011;41155;39.768;2.712;2023-02-12T01:55:19;26.95;;;23.52;;
55290;SDS011;41155;39.768;2.712;2023-02-12T01:57:46;22.10;;;19.80;;
55290;SDS011;41155;39.768;2.712;2023-02-12T02:00:13;29.77;;;25.00;;
55290;SDS011;41155;39.768;2.712;2023-02-12T02:02:43;37.38;;;30.55;;
55290;SDS011;41155;39.768;2.712;2023-02-12T02:05:11;40.75;;;32.80;;
55290;SDS011;41155;39.768;2.712;2023-02-12T02:07:42;38.40;;;31.20;;
55290;SDS011;41155;39.768;2.712;2023-02-12T02:10:08;29.77;;;25.23;;
55290;SDS011;41155;39.768;2.712;2023-02-12T02:12:34;22.92;;;20.40;;
55290;SDS011;41155;39.768;2.712;2023-02-12T02:15:19;24.08;;;21.63;;
55290;SDS011;41155;39.768;2.712;2023-02-12T02:18:02;23.40;;;20.63;;
55290;SDS011;41155;39.768;2.712;2023-02-12T02:36:46;33.47;;;27.67;;
55290;SDS011;41155;39.768;2.712;2023-02-12T02:42:17;26.52;;;23.60;;
55290;SDS011;41155;39.768;2.712;2023-02-12T02:47:13;30.88;;;26.08;;
55290;SDS011;41155;39.768;2.712;2023-02-12T02:49:44;25.70;;;21.45;;
55290;SDS011;41155;39.768;2.712;2023-02-12T02:52:20;29.27;;;24.58;;
55290;SDS011;41155;39.768;2.712;2023-02-12T02:54:52;30.13;;;25.85;;
55290;SDS011;41155;39.768;2.712;2023-02-12T02:57:23;25.40;;;22.73;;
55290;SDS011;41155;39.768;2.712;2023-02-12T02:59:56;38.92;;;25.48;;
55290;SDS011;41155;39.768;2.712;2023-02-12T03:02:29;33.33;;;26.10;;
55290;SDS011;41155;39.768;2.712;2023-02-12T03:05:07;36.83;;;27.15;;
55290;SDS011;41155;39.768;2.712;2023-02-12T03:07:43;32.72;;;24.92;;
55290;SDS011;41155;39.768;2.712;2023-02-12T03:10:21;25.88;;;23.17;;
55290;SDS011;41155;39.768;2.712;2023-02-12T03:12:57;27.88;;;24.50;;
55290;SDS011;41155;39.768;2.712;2023-02-12T03:15:34;29.52;;;24.63;;
55290;SDS011;41155;39.768;2.712;2023-02-12T03:18:06;34.85;;;27.38;;
55290;SDS011;41155;39.768;2.712;2023-02-12T03:20:37;26.17;;;22.25;;
55290;SDS011;41155;39.768;2.712;2023-02-12T03:23:09;36.10;;;29.85;;
55290;SDS011;41155;39.768;2.712;2023-02-12T03:28:16;26.58;;;23.17;;
55290;SDS011;41155;39.768;2.712;2023-02-12T03:30:51;26.90;;;24.10;;
55290;SDS011;41155;39.768;2.712;2023-02-12T03:41:08;21.10;;;19.00;;
55290;SDS011;41155;39.768;2.712;2023-02-12T03:46:39;21.70;;;19.42;;
55290;SDS011;41155;39.768;2.712;2023-02-12T03:49:15;28.05;;;25.00;;
55290;SDS011;41155;39.768;2.712;2023-02-12T03:51:43;27.05;;;23.35;;
55290;SDS011;41155;39.768;2.712;2023-02-12T03:54:09;25.48;;;22.77;;
55290;SDS011;41155;39.768;2.712;2023-02-12T03:59:04;19.17;;;17.25;;
55290;SDS011;41155;39.768;2.712;2023-02-12T04:01:30;19.02;;;17.25;;
55290;SDS011;41155;39.768;2.712;2023-02-12T04:03:58;20.40;;;17.15;;
55290;SDS011;41155;39.768;2.712;2023-02-12T04:06:27;18.60;;;16.77;;
55290;SDS011;41155;39.768;2.712;2023-02-12T04:08:53;25.33;;;17.63;;
55290;SDS011;41155;39.768;2.712;2023-02-12T04:16:48;31.80;;;28.23;;
55290;SDS011;41155;39.768;2.712;2023-02-12T04:19:27;23.02;;;20.10;;
55290;SDS011;41155;39.768;2.712;2023-02-12T04:22:13;22.55;;;20.17;;
55290;SDS011;41155;39.768;2.712;2023-02-12T04:25:21;21.02;;;18.88;;
55290;SDS011;41155;39.768;2.712;2023-02-12T04:28:01;27.42;;;24.42;;
55290;SDS011;41155;39.768;2.712;2023-02-12T04:30:41;28.38;;;22.10;;
55290;SDS011;41155;39.768;2.712;2023-02-12T04:33:18;20.25;;;18.40;;
55290;SDS011;41155;39.768;2.712;2023-02-12T04:35:48;20.92;;;18.80;;
55290;SDS011;41155;39.768;2.712;2023-02-12T04:38:33;22.48;;;19.77;;
55290;SDS011;41155;39.768;2.712;2023-02-12T04:41:04;24.70;;;20.35;;
55290;SDS011;41155;39.768;2.712;2023-02-12T04:43:32;20.42;;;18.55;;
55290;SDS011;41155;39.768;2.712;2023-02-12T04:46:00;19.88;;;17.77;;
55290;SDS011;41155;39.768;2.712;2023-02-12T04:48:26;20.80;;;18.73;;
55290;SDS011;41155;39.768;2.712;2023-02-12T04:50:54;23.25;;;18.65;;
55290;SDS011;41155;39.768;2.712;2023-02-12T04:53:19;19.67;;;17.80;;
55290;SDS011;41155;39.768;2.712;2023-02-12T04:55:45;19.08;;;17.23;;
55290;SDS011;41155;39.768;2.712;2023-02-12T04:58:11;19.15;;;17.35;;
55290;SDS011;41155;39.768;2.712;2023-02-12T05:00:37;18.98;;;17.20;;
55290;SDS011;41155;39.768;2.712;2023-02-12T05:03:02;19.13;;;17.20;;
55290;SDS011;41155;39.768;2.712;2023-02-12T05:05:28;19.88;;;17.88;;
55290;SDS011;41155;39.768;2.712;2023-02-12T05:07:54;20.85;;;17.48;;
55290;SDS011;41155;39.768;2.712;2023-02-12T05:10:19;19.08;;;17.17;;
55290;SDS011;41155;39.768;2.712;2023-02-12T05:12:44;21.52;;;19.05;;
55290;SDS011;41155;39.768;2.712;2023-02-12T05:15:10;20.42;;;18.52;;
55290;SDS011;41155;39.768;2.712;2023-02-12T05:17:36;23.98;;;21.42;;
55290;SDS011;41155;39.768;2.712;2023-02-12T05:20:02;31.33;;;24.70;;
55290;SDS011;41155;39.768;2.712;2023-02-12T05:22:29;26.65;;;24.00;;
55290;SDS011;41155;39.768;2.712;2023-02-12T05:24:54;21.52;;;19.52;;
55290;SDS011;41155;39.768;2.712;2023-02-12T05:27:19;20.38;;;18.40;;
55290;SDS011;41155;39.768;2.712;2023-02-12T05:29:45;21.77;;;19.50;;
55290;SDS011;41155;39.768;2.712;2023-02-12T05:32:10;20.58;;;18.45;;
55290;SDS011;41155;39.768;2.712;2023-02-12T05:34:36;20.15;;;18.02;;
55290;SDS011;41155;39.768;2.712;2023-02-12T05:37:01;20.33;;;18.23;;
55290;SDS011;41155;39.768;2.712;2023-02-12T05:39:27;23.60;;;19.23;;
55290;SDS011;41155;39.768;2.712;2023-02-12T05:41:52;23.55;;;21.27;;
55290;SDS011;41155;39.768;2.712;2023-02-12T05:44:18;23.27;;;20.60;;
55290;SDS011;41155;39.768;2.712;2023-02-12T05:46:43;22.80;;;20.40;;
55290;SDS011;41155;39.768;2.712;2023-02-12T05:49:09;23.75;;;20.63;;
55290;SDS011;41155;39.768;2.712;2023-02-12T05:51:35;27.95;;;20.73;;
55290;SDS011;41155;39.768;2.712;2023-02-12T05:54:02;28.52;;;22.17;;
55290;SDS011;41155;39.768;2.712;2023-02-12T05:56:32;26.73;;;21.38;;
55290;SDS011;41155;39.768;2.712;2023-02-12T05:59:04;25.02;;;22.13;;
55290;SDS011;41155;39.768;2.712;2023-02-12T06:01:36;23.65;;;20.65;;
55290;SDS011;41155;39.768;2.712;2023-02-12T06:04:05;22.80;;;20.60;;
55290;SDS011;41155;39.768;2.712;2023-02-12T06:06:32;23.42;;;20.85;;
55290;SDS011;41155;39.768;2.712;2023-02-12T06:08:58;31.38;;;23.83;;
55290;SDS011;41155;39.768;2.712;2023-02-12T06:11:25;25.67;;;22.98;;
55290;SDS011;41155;39.768;2.712;2023-02-12T06:13:51;36.25;;;20.30;;
55290;SDS011;41155;39.768;2.712;2023-02-12T06:16:26;30.25;;;19.48;;
55290;SDS011;41155;39.768;2.712;2023-02-12T06:18:53;26.35;;;21.38;;
55290;SDS011;41155;39.768;2.712;2023-02-12T06:21:20;29.52;;;22.98;;
55290;SDS011;41155;39.768;2.712;2023-02-12T06:23:47;23.02;;;20.40;;
55290;SDS011;41155;39.768;2.712;2023-02-12T06:26:13;20.63;;;18.55;;
55290;SDS011;41155;39.768;2.712;2023-02-12T06:28:39;22.15;;;17.65;;
55290;SDS011;41155;39.768;2.712;2023-02-12T06:31:05;20.60;;;18.45;;
55290;SDS011;41155;39.768;2.712;2023-02-12T06:33:43;19.90;;;17.90;;
55290;SDS011;41155;39.768;2.712;2023-02-12T06:36:09;36.03;;;31.95;;
55290;SDS011;41155;39.768;2.712;2023-02-12T06:38:34;54.97;;;42.08;;
55290;SDS011;41155;39.768;2.712;2023-02-12T06:41:00;28.23;;;25.23;;
55290;SDS011;41155;39.768;2.712;2023-02-12T06:43:26;26.85;;;24.13;;
55290;SDS011;41155;39.768;2.712;2023-02-12T06:45:51;20.55;;;18.65;;
55290;SDS011;41155;39.768;2.712;2023-02-12T06:48:17;25.88;;;23.33;;
55290;SDS011;41155;39.768;2.712;2023-02-12T06:50:42;21.17;;;18.92;;
55290;SDS011;41155;39.768;2.712;2023-02-12T06:53:08;30.25;;;22.10;;
55290;SDS011;41155;39.768;2.712;2023-02-12T06:55:33;27.88;;;24.92;;
55290;SDS011;41155;39.768;2.712;2023-02-12T06:57:59;25.60;;;19.73;;
55290;SDS011;41155;39.768;2.712;2023-02-12T07:00:24;20.55;;;18.15;;
55290;SDS011;41155;39.768;2.712;2023-02-12T07:02:56;45.28;;;19.33;;
55290;SDS011;41155;39.768;2.712;2023-02-12T07:05:22;27.02;;;18.63;;
55290;SDS011;41155;39.768;2.712;2023-02-12T07:07:48;19.58;;;17.77;;
55290;SDS011;41155;39.768;2.712;2023-02-12T07:10:13;25.98;;;23.35;;
55290;SDS011;41155;39.768;2.712;2023-02-12T07:12:39;33.97;;;29.58;;
55290;SDS011;41155;39.768;2.712;2023-02-12T07:15:04;34.50;;;24.65;;
55290;SDS011;41155;39.768;2.712;2023-02-12T07:17:30;28.15;;;22.67;;
55290;SDS011;41155;39.768;2.712;2023-02-12T07:19:56;23.63;;;20.65;;
55290;SDS011;41155;39.768;2.712;2023-02-12T07:22:21;26.30;;;21.38;;
55290;SDS011;41155;39.768;2.712;2023-02-12T07:24:47;27.20;;;21.92;;
55290;SDS011;41155;39.768;2.712;2023-02-12T07:27:13;28.70;;;23.27;;
55290;SDS011;41155;39.768;2.712;2023-02-12T07:29:39;32.88;;;24.45;;
55290;SDS011;41155;39.768;2.712;2023-02-12T07:32:04;26.48;;;23.90;;
55290;SDS011;41155;39.768;2.712;2023-02-12T07:34:30;37.45;;;31.23;;
55290;SDS011;41155;39.768;2.712;2023-02-12T07:36:56;37.45;;;28.77;;
55290;SDS011;41155;39.768;2.712;2023-02-12T07:39:21;59.50;;;51.83;;
55290;SDS011;41155;39.768;2.712;2023-02-12T07:41:47;39.10;;;31.40;;
55290;SDS011;41155;39.768;2.712;2023-02-12T07:44:12;43.28;;;32.10;;
55290;SDS011;41155;39.768;2.712;2023-02-12T07:46:39;35.67;;;30.10;;
55290;SDS011;41155;39.768;2.712;2023-02-12T07:49:07;30.63;;;27.35;;
55290;SDS011;41155;39.768;2.712;2023-02-12T07:51:36;38.05;;;28.48;;
55290;SDS011;41155;39.768;2.712;2023-02-12T07:54:02;30.25;;;26.92;;
55290;SDS011;41155;39.768;2.712;2023-02-12T07:56:29;90.15;;;65.55;;
55290;SDS011;41155;39.768;2.712;2023-02-12T07:58:58;52.63;;;42.65;;
55290;SDS011;41155;39.768;2.712;2023-02-12T08:03:58;42.75;;;35.88;;
55290;SDS011;41155;39.768;2.712;2023-02-12T08:06:26;34.13;;;30.02;;
55290;SDS011;41155;39.768;2.712;2023-02-12T08:08:54;37.17;;;32.00;;
55290;SDS011;41155;39.768;2.712;2023-02-12T08:11:22;52.50;;;42.42;;
55290;SDS011;41155;39.768;2.712;2023-02-12T08:13:48;128.65;;;89.78;;
55290;SDS011;41155;39.768;2.712;2023-02-12T08:16:15;44.85;;;34.83;;
55290;SDS011;41155;39.768;2.712;2023-02-12T08:18:43;45.00;;;35.33;;
55290;SDS011;41155;39.768;2.712;2023-02-12T08:21:19;43.25;;;37.53;;
55290;SDS011;41155;39.768;2.712;2023-02-12T08:23:52;58.05;;;42.33;;
55290;SDS011;41155;39.768;2.712;2023-02-12T08:26:26;148.70;;;120.10;;
55290;SDS011;41155;39.768;2.712;2023-02-12T08:28:53;106.28;;;85.60;;
55290;SDS011;41155;39.768;2.712;2023-02-12T08:31:31;97.07;;;75.13;;
55290;SDS011;41155;39.768;2.712;2023-02-12T08:34:02;68.78;;;60.83;;
55290;SDS011;41155;39.768;2.712;2023-02-12T08:36:35;74.95;;;61.47;;
55290;SDS011;41155;39.768;2.712;2023-02-12T08:39:03;56.72;;;46.95;;
55290;SDS011;41155;39.768;2.712;2023-02-12T08:41:32;47.80;;;41.13;;
55290;SDS011;41155;39.768;2.712;2023-02-12T08:44:00;50.75;;;36.63;;
55290;SDS011;41155;39.768;2.712;2023-02-12T08:46:28;60.38;;;45.03;;
55290;SDS011;41155;39.768;2.712;2023-02-12T08:48:59;55.38;;;37.13;;
55290;SDS011;41155;39.768;2.712;2023-02-12T08:51:30;43.03;;;34.80;;
55290;SDS011;41155;39.768;2.712;2023-02-12T08:53:59;45.53;;;36.70;;
55290;SDS011;41155;39.768;2.712;2023-02-12T08:56:26;68.28;;;50.50;;
55290;SDS011;41155;39.768;2.712;2023-02-12T08:58:54;48.70;;;39.15;;
55290;SDS011;41155;39.768;2.712;2023-02-12T09:01:21;61.22;;;39.05;;
55290;SDS011;41155;39.768;2.712;2023-02-12T09:03:48;51.75;;;37.78;;
55290;SDS011;41155;39.768;2.712;2023-02-12T09:06:15;55.17;;;41.65;;
55290;SDS011;41155;39.768;2.712;2023-02-12T09:08:42;60.63;;;44.40;;
55290;SDS011;41155;39.768;2.712;2023-02-12T09:11:09;68.07;;;45.25;;
55290;SDS011;41155;39.768;2.712;2023-02-12T09:13:36;59.85;;;46.78;;
55290;SDS011;41155;39.768;2.712;2023-02-12T09:16:04;68.65;;;54.45;;
55290;SDS011;41155;39.768;2.712;2023-02-12T09:18:30;78.60;;;55.75;;
55290;SDS011;41155;39.768;2.712;2023-02-12T09:21:03;63.53;;;47.88;;
55290;SDS011;41155;39.768;2.712;2023-02-12T09:23:48;45.83;;;34.20;;
55290;SDS011;41155;39.768;2.712;2023-02-12T09:26:16;49.33;;;33.05;;
55290;SDS011;41155;39.768;2.712;2023-02-12T09:28:47;42.95;;;32.00;;
55290;SDS011;41155;39.768;2.712;2023-02-12T09:31:15;31.83;;;26.83;;
55290;SDS011;41155;39.768;2.712;2023-02-12T09:33:43;51.92;;;29.48;;
55290;SDS011;41155;39.768;2.712;2023-02-12T09:36:15;33.92;;;29.98;;
55290;SDS011;41155;39.768;2.712;2023-02-12T09:38:41;49.63;;;33.53;;
55290;SDS011;41155;39.768;2.712;2023-02-12T09:44:00;31.50;;;23.52;;
55290;SDS011;41155;39.768;2.712;2023-02-12T09:46:29;27.85;;;20.20;;
55290;SDS011;41155;39.768;2.712;2023-02-12T09:51:28;21.33;;;18.35;;
55290;SDS011;41155;39.768;2.712;2023-02-12T09:54:03;28.52;;;17.95;;
55290;SDS011;41155;39.768;2.712;2023-02-12T09:56:30;23.65;;;15.43;;
55290;SDS011;41155;39.768;2.712;2023-02-12T09:58:59;40.90;;;16.42;;
55290;SDS011;41155;39.768;2.712;2023-02-12T10:01:28;17.48;;;14.02;;
55290;SDS011;41155;39.768;2.712;2023-02-12T10:03:54;15.63;;;14.02;;
55290;SDS011;41155;39.768;2.712;2023-02-12T10:06:35;17.80;;;14.45;;
55290;SDS011;41155;39.768;2.712;2023-02-12T10:18:03;14.18;;;9.50;;
55290;SDS011;41155;39.768;2.712;2023-02-12T10:26:18;17.88;;;15.98;;
55290;SDS011;41155;39.768;2.712;2023-02-12T10:28:50;21.35;;;15.25;;
55290;SDS011;41155;39.768;2.712;2023-02-12T10:33:50;18.77;;;13.20;;
55290;SDS011;41155;39.768;2.712;2023-02-12T10:41:44;19.88;;;14.48;;
55290;SDS011;41155;39.768;2.712;2023-02-12T10:44:17;50.38;;;43.78;;
55290;SDS011;41155;39.768;2.712;2023-02-12T10:46:43;21.15;;;14.45;;
55290;SDS011;41155;39.768;2.712;2023-02-12T10:49:10;13.57;;;10.10;;
55290;SDS011;41155;39.768;2.712;2023-02-12T10:56:59;9.23;;;7.15;;
55290;SDS011;41155;39.768;2.712;2023-02-12T10:59:51;9.10;;;6.55;;
55290;SDS011;41155;39.768;2.712;2023-02-12T11:02:27;10.40;;;7.70;;
55290;SDS011;41155;39.768;2.712;2023-02-12T11:04:56;12.70;;;6.95;;
55290;SDS011;41155;39.768;2.712;2023-02-12T11:07:23;10.25;;;6.20;;
55290;SDS011;41155;39.768;2.712;2023-02-12T11:09:51;10.60;;;7.65;;
55290;SDS011;41155;39.768;2.712;2023-02-12T11:15:13;11.18;;;8.50;;
55290;SDS011;41155;39.768;2.712;2023-02-12T11:17:44;9.45;;;7.30;;
55290;SDS011;41155;39.768;2.712;2023-02-12T11:20:20;10.30;;;8.25;;
55290;SDS011;41155;39.768;2.712;2023-02-12T11:22:52;17.45;;;8.45;;
55290;SDS011;41155;39.768;2.712;2023-02-12T11:25:21;11.27;;;10.10;;
55290;SDS011;41155;39.768;2.712;2023-02-12T11:27:58;13.82;;;7.97;;
55290;SDS011;41155;39.768;2.712;2023-02-12T11:30:25;8.68;;;7.75;;
55290;SDS011;41155;39.768;2.712;2023-02-12T11:32:51;9.82;;;8.85;;
55290;SDS011;41155;39.768;2.712;2023-02-12T11:35:23;12.05;;;10.80;;
55290;SDS011;41155;39.768;2.712;2023-02-12T11:37:55;18.27;;;16.48;;
55290;SDS011;41155;39.768;2.712;2023-02-12T11:40:24;18.38;;;8.30;;
55290;SDS011;41155;39.768;2.712;2023-02-12T11:42:55;8.93;;;5.93;;
55290;SDS011;41155;39.768;2.712;2023-02-12T11:45:30;16.23;;;12.57;;
55290;SDS011;41155;39.768;2.712;2023-02-12T11:47:59;43.38;;;38.25;;
55290;SDS011;41155;39.768;2.712;2023-02-12T11:50:26;27.17;;;23.02;;
55290;SDS011;41155;39.768;2.712;2023-02-12T11:53:05;41.08;;;35.80;;
55290;SDS011;41155;39.768;2.712;2023-02-12T11:55:42;28.13;;;25.25;;
55290;SDS011;41155;39.768;2.712;2023-02-12T11:58:22;13.52;;;12.15;;
55290;SDS011;41155;39.768;2.712;2023-02-12T12:14:29;6.78;;;5.25;;
55290;SDS011;41155;39.768;2.712;2023-02-12T12:17:19;4.80;;;4.10;;
55290;SDS011;41155;39.768;2.712;2023-02-12T12:20:11;7.18;;;4.25;;
55290;SDS011;41155;39.768;2.712;2023-02-12T12:25:19;11.57;;;7.90;;
55290;SDS011;41155;39.768;2.712;2023-02-12T12:27:53;6.93;;;6.03;;
55290;SDS011;41155;39.768;2.712;2023-02-12T12:32:56;9.90;;;7.93;;
55290;SDS011;41155;39.768;2.712;2023-02-12T12:35:38;17.52;;;10.35;;
55290;SDS011;41155;39.768;2.712;2023-02-12T12:41:01;8.35;;;5.97;;
55290;SDS011;41155;39.768;2.712;2023-02-12T12:43:39;14.50;;;12.32;;
55290;SDS011;41155;39.768;2.712;2023-02-12T12:46:40;10.20;;;7.57;;
55290;SDS011;41155;39.768;2.712;2023-02-12T13:09:02;10.75;;;5.82;;
55290;SDS011;41155;39.768;2.712;2023-02-12T13:15:00;12.05;;;6.20;;
55290;SDS011;41155;39.768;2.712;2023-02-12T13:22:58;17.23;;;9.98;;
55290;SDS011;41155;39.768;2.712;2023-02-12T13:25:39;10.40;;;6.43;;
55290;SDS011;41155;39.768;2.712;2023-02-12T13:28:18;12.52;;;7.72;;
55290;SDS011;41155;39.768;2.712;2023-02-12T13:30:53;7.45;;;6.20;;
55290;SDS011;41155;39.768;2.712;2023-02-12T13:33:21;6.05;;;5.45;;
55290;SDS011;41155;39.768;2.712;2023-02-12T13:35:56;8.05;;;6.50;;
55290;SDS011;41155;39.768;2.712;2023-02-12T13:38:25;7.85;;;7.05;;
55290;SDS011;41155;39.768;2.712;2023-02-12T13:41:12;12.20;;;7.60;;
55290;SDS011;41155;39.768;2.712;2023-02-12T13:43:45;8.02;;;6.93;;
55290;SDS011;41155;39.768;2.712;2023-02-12T13:51:43;8.38;;;7.00;;
55290;SDS011;41155;39.768;2.712;2023-02-12T13:54:14;6.78;;;6.07;;
55290;SDS011;41155;39.768;2.712;2023-02-12T13:56:54;11.95;;;6.40;;
55290;SDS011;41155;39.768;2.712;2023-02-12T14:01:57;10.00;;;6.47;;
55290;SDS011;41155;39.768;2.712;2023-02-12T14:07:13;11.95;;;7.22;;
55290;SDS011;41155;39.768;2.712;2023-02-12T14:09:41;7.47;;;6.60;;
55290;SDS011;41155;39.768;2.712;2023-02-12T14:12:16;9.38;;;7.07;;
55290;SDS011;41155;39.768;2.712;2023-02-12T14:25:25;10.23;;;8.90;;
55290;SDS011;41155;39.768;2.712;2023-02-12T14:30:36;7.68;;;6.88;;
55290;SDS011;41155;39.768;2.712;2023-02-12T14:35:40;14.35;;;8.20;;
55290;SDS011;41155;39.768;2.712;2023-02-12T14:38:55;9.90;;;8.70;;
55290;SDS011;41155;39.768;2.712;2023-02-12T14:40:52;10.07;;;7.75;;
55290;SDS011;41155;39.768;2.712;2023-02-12T14:52:03;20.95;;;8.10;;
55290;SDS011;41155;39.768;2.712;2023-02-12T14:59:48;13.07;;;8.05;;
55290;SDS011;41155;39.768;2.712;2023-02-12T15:02:23;9.15;;;7.22;;
55290;SDS011;41155;39.768;2.712;2023-02-12T15:04:52;18.15;;;7.75;;
55290;SDS011;41155;39.768;2.712;2023-02-12T15:07:32;15.63;;;10.85;;
55290;SDS011;41155;39.768;2.712;2023-02-12T15:10:15;13.20;;;8.57;;
55290;SDS011;41155;39.768;2.712;2023-02-12T15:13:00;8.63;;;7.78;;
55290;SDS011;41155;39.768;2.712;2023-02-12T15:15:32;13.30;;;7.85;;
55290;SDS011;41155;39.768;2.712;2023-02-12T15:18:10;9.80;;;8.95;;
55290;SDS011;41155;39.768;2.712;2023-02-12T15:23:59;13.25;;;9.60;;
55290;SDS011;41155;39.768;2.712;2023-02-12T15:26:38;15.23;;;7.95;;
55290;SDS011;41155;39.768;2.712;2023-02-12T15:29:06;11.38;;;7.15;;
55290;SDS011;41155;39.768;2.712;2023-02-12T15:31:44;10.30;;;9.18;;
55290;SDS011;41155;39.768;2.712;2023-02-12T15:34:17;13.38;;;11.35;;
55290;SDS011;41155;39.768;2.712;2023-02-12T15:36:46;10.60;;;8.82;;
55290;SDS011;41155;39.768;2.712;2023-02-12T15:39:19;12.88;;;7.35;;
55290;SDS011;41155;39.768;2.712;2023-02-12T15:41:46;14.07;;;12.55;;
55290;SDS011;41155;39.768;2.712;2023-02-12T15:49:41;11.68;;;10.57;;
55290;SDS011;41155;39.768;2.712;2023-02-12T15:52:16;15.73;;;13.70;;
55290;SDS011;41155;39.768;2.712;2023-02-12T15:54:45;17.15;;;15.35;;
55290;SDS011;41155;39.768;2.712;2023-02-12T15:57:13;22.50;;;19.40;;
55290;SDS011;41155;39.768;2.712;2023-02-12T16:02:35;14.50;;;12.18;;
55290;SDS011;41155;39.768;2.712;2023-02-12T16:05:01;14.82;;;11.10;;
55290;SDS011;41155;39.768;2.712;2023-02-12T16:07:29;18.88;;;13.95;;
55290;SDS011;41155;39.768;2.712;2023-02-12T16:09:59;43.35;;;28.27;;
55290;SDS011;41155;39.768;2.712;2023-02-12T16:12:27;37.25;;;27.45;;
55290;SDS011;41155;39.768;2.712;2023-02-12T16:14:55;24.70;;;17.52;;
55290;SDS011;41155;39.768;2.712;2023-02-12T16:20:31;59.28;;;38.38;;
55290;SDS011;41155;39.768;2.712;2023-02-12T16:22:43;72.37;;;46.00;;
55290;SDS011;41155;39.768;2.712;2023-02-12T16:25:14;120.72;;;71.35;;
55290;SDS011;41155;39.768;2.712;2023-02-12T16:30:33;70.45;;;44.10;;
55290;SDS011;41155;39.768;2.712;2023-02-12T16:38:44;27.38;;;24.67;;
55290;SDS011;41155;39.768;2.712;2023-02-12T16:44:33;24.50;;;19.17;;
55290;SDS011;41155;39.768;2.712;2023-02-12T16:46:49;52.00;;;34.90;;
55290;SDS011;41155;39.768;2.712;2023-02-12T16:49:16;38.22;;;27.83;;
55290;SDS011;41155;39.768;2.712;2023-02-12T16:51:44;50.75;;;37.88;;
55290;SDS011;41155;39.768;2.712;2023-02-12T16:56:55;31.20;;;26.83;;
55290;SDS011;41155;39.768;2.712;2023-02-12T16:59:21;37.80;;;27.45;;
55290;SDS011;41155;39.768;2.712;2023-02-12T17:02:03;37.55;;;29.65;;
55290;SDS011;41155;39.768;2.712;2023-02-12T17:04:34;46.90;;;39.50;;
55290;SDS011;41155;39.768;2.712;2023-02-12T17:06:59;107.82;;;72.65;;
55290;SDS011;41155;39.768;2.712;2023-02-12T17:09:25;33.72;;;29.98;;
55290;SDS011;41155;39.768;2.712;2023-02-12T17:11:53;28.45;;;25.25;;
55290;SDS011;41155;39.768;2.712;2023-02-12T17:14:19;31.90;;;25.00;;
55290;SDS011;41155;39.768;2.712;2023-02-12T17:16:45;37.17;;;27.33;;
55290;SDS011;41155;39.768;2.712;2023-02-12T17:19:11;40.22;;;27.00;;
55290;SDS011;41155;39.768;2.712;2023-02-12T17:21:37;32.65;;;25.60;;
55290;SDS011;41155;39.768;2.712;2023-02-12T17:24:06;33.50;;;25.83;;
55290;SDS011;41155;39.768;2.712;2023-02-12T17:26:39;30.10;;;23.52;;
55290;SDS011;41155;39.768;2.712;2023-02-12T17:29:04;37.10;;;20.58;;
55290;SDS011;41155;39.768;2.712;2023-02-12T17:31:31;22.65;;;19.85;;
55290;SDS011;41155;39.768;2.712;2023-02-12T17:33:57;41.05;;;30.15;;
55290;SDS011;41155;39.768;2.712;2023-02-12T17:36:22;54.30;;;38.60;;
55290;SDS011;41155;39.768;2.712;2023-02-12T17:38:49;56.97;;;40.25;;
55290;SDS011;41155;39.768;2.712;2023-02-12T17:41:15;63.85;;;43.92;;
55290;SDS011;41155;39.768;2.712;2023-02-12T17:43:41;70.53;;;50.30;;
55290;SDS011;41155;39.768;2.712;2023-02-12T17:46:10;49.78;;;38.08;;
55290;SDS011;41155;39.768;2.712;2023-02-12T17:48:38;44.45;;;38.78;;
55290;SDS011;41155;39.768;2.712;2023-02-12T17:51:04;80.45;;;47.92;;
55290;SDS011;41155;39.768;2.712;2023-02-12T17:53:30;60.85;;;48.47;;
55290;SDS011;41155;39.768;2.712;2023-02-12T17:55:56;93.93;;;65.90;;
55290;SDS011;41155;39.768;2.712;2023-02-12T17:58:21;118.82;;;84.10;;
55290;SDS011;41155;39.768;2.712;2023-02-12T18:00:47;76.68;;;57.63;;